createdAt,value
2023-03-29T00:01:48.969Z,1267.00
2023-03-29T00:05:49.040Z,1256.00
2023-03-29T00:09:49.098Z,1246.00
2023-03-29T00:13:49.328Z,1250.00
2023-03-29T00:17:49.450Z,1238.00
2023-03-29T00:21:49.459Z,1237.00
2023-03-29T00:25:49.648Z,1232.00
2023-03-29T00:29:49.759Z,1235.00
2023-03-29T00:33:49.810Z,1217.00
2023-03-29T00:37:50.063Z,1217.00
2023-03-29T00:41:50.206Z,1204.00
2023-03-29T00:45:50.269Z,1214.00
2023-03-29T00:49:50.508Z,1196.00
2023-03-29T00:53:50.623Z,1199.00
2023-03-29T00:57:50.739Z,1197.00
2023-03-29T01:01:50.938Z,1194.00
2023-03-29T01:05:51.036Z,1185.00
2023-03-29T01:09:51.263Z,1181.00
2023-03-29T01:13:51.418Z,1176.00
2023-03-29T01:17:51.508Z,1167.00
2023-03-29T01:21:51.703Z,1165.00
2023-03-29T01:25:51.831Z,1156.00
2023-03-29T01:29:51.938Z,1153.00
2023-03-29T01:33:52.129Z,1160.00
2023-03-29T01:37:52.303Z,1150.00
2023-03-29T01:41:52.418Z,1137.00
2023-03-29T01:45:52.679Z,1136.00
2023-03-29T01:49:52.875Z,1135.00
2023-03-29T01:53:52.983Z,1122.00
2023-03-29T01:57:54.564Z,1130.00
2023-03-29T02:01:53.481Z,1117.00
2023-03-29T02:05:53.512Z,1107.00
2023-03-29T02:09:53.746Z,1114.00
2023-03-29T02:13:54.035Z,1116.00
2023-03-29T02:17:54.146Z,1094.00
2023-03-29T02:21:54.323Z,1097.00
2023-03-29T02:25:54.589Z,1086.00
2023-03-29T02:29:54.677Z,1093.00
2023-03-29T02:33:54.933Z,1086.00
2023-03-29T02:37:55.116Z,1091.00
2023-03-29T02:41:55.261Z,1079.00
2023-03-29T02:45:55.513Z,1076.00
2023-03-29T02:49:55.660Z,1069.00
2023-03-29T02:53:55.799Z,1070.00
2023-03-29T02:57:56.104Z,1070.00
2023-03-29T03:01:56.393Z,1066.00
2023-03-29T03:05:56.432Z,1048.00
2023-03-29T03:09:56.751Z,1058.00
2023-03-29T03:13:56.919Z,1070.00
2023-03-29T03:17:57.121Z,1048.00
2023-03-29T03:21:57.383Z,1041.00
2023-03-29T03:25:57.280Z,1037.00
2023-03-29T03:29:57.195Z,1032.00
2023-03-29T03:33:57.255Z,1026.00
2023-03-29T03:37:57.192Z,1033.00
2023-03-29T03:41:57.133Z,1010.00
2023-03-29T03:45:57.179Z,1003.00
2023-03-29T03:49:57.085Z,995.00
2023-03-29T03:53:57.001Z,1012.00
2023-03-29T03:57:57.036Z,994.00
2023-03-29T04:01:57.012Z,979.00
2023-03-29T04:05:56.894Z,984.00
2023-03-29T04:09:57.152Z,987.00
2023-03-29T04:13:57.290Z,971.00
2023-03-29T04:17:57.516Z,975.00
2023-03-29T04:21:57.658Z,955.00
2023-03-29T04:25:57.801Z,963.00
2023-03-29T04:29:57.904Z,949.00
2023-03-29T04:34:00.316Z,929.00
2023-03-29T04:37:58.270Z,944.00
2023-03-29T04:41:58.298Z,922.00
2023-03-29T04:45:58.482Z,933.00
2023-03-29T04:49:58.606Z,930.00
2023-03-29T04:53:58.608Z,917.00
2023-03-29T04:57:58.834Z,924.00
2023-03-29T05:01:59.012Z,911.00
2023-03-29T05:05:59.886Z,903.00
2023-03-29T05:09:59.380Z,900.00
2023-03-29T05:13:59.595Z,899.00
2023-03-29T05:17:59.795Z,900.00
2023-03-29T05:21:59.740Z,875.00
2023-03-29T05:25:59.709Z,881.00
2023-03-29T05:29:59.619Z,872.00
2023-03-29T05:33:59.636Z,872.00
2023-03-29T05:37:59.965Z,944.00
2023-03-29T05:41:59.916Z,910.00
2023-03-29T05:46:00.111Z,939.00
2023-03-29T05:49:59.619Z,987.00
2023-03-29T05:53:59.447Z,1061.00
2023-03-29T05:57:59.540Z,1170.00
2023-03-29T06:01:59.535Z,1262.00
2023-03-29T06:05:59.478Z,1368.00
2023-03-29T06:09:59.426Z,1545.00
2023-03-29T06:13:59.582Z,1617.00
2023-03-29T06:17:59.652Z,1720.00
2023-03-29T06:22:00.086Z,1794.00
2023-03-29T06:25:59.787Z,1854.00
2023-03-29T06:29:59.858Z,1944.00
2023-03-29T06:33:59.896Z,1999.00
2023-03-29T06:38:00.158Z,2092.00
2023-03-29T06:42:03.465Z,2142.00
2023-03-29T06:46:00.869Z,2160.00
2023-03-29T06:50:00.004Z,2325.00
2023-03-29T06:53:59.945Z,2585.00
2023-03-29T06:58:02.263Z,2492.00
2023-03-29T07:02:00.119Z,2497.00
2023-03-29T07:05:59.972Z,1148.00
2023-03-29T07:09:59.941Z,1184.00
2023-03-29T07:13:59.942Z,1316.00
2023-03-29T07:18:00.085Z,1449.00
2023-03-29T07:21:59.766Z,1526.00
2023-03-29T07:25:59.817Z,1609.00
2023-03-29T07:29:59.974Z,1706.00
2023-03-29T07:33:59.970Z,1740.00
2023-03-29T07:37:59.607Z,1790.00
2023-03-29T07:42:00.844Z,1839.00
2023-03-29T07:46:00.162Z,1922.00
2023-03-29T07:49:59.736Z,1917.00
2023-03-29T07:53:59.477Z,1833.00
2023-03-29T07:57:59.510Z,1096.00
2023-03-29T08:01:59.959Z,943.00
2023-03-29T08:05:59.909Z,1075.00
2023-03-29T08:10:00.001Z,1168.00
2023-03-29T08:14:00.094Z,1305.00
2023-03-29T08:18:00.300Z,1412.00
2023-03-29T08:22:00.320Z,1516.00
2023-03-29T08:26:00.358Z,1606.00
2023-03-29T08:30:00.631Z,1681.00
2023-03-29T08:34:01.054Z,1853.00
2023-03-29T08:38:00.976Z,1920.00
2023-03-29T08:42:01.617Z,1858.00
2023-03-29T08:46:01.294Z,1916.00
2023-03-29T08:50:01.548Z,2023.00
2023-03-29T08:54:02.084Z,1640.00
2023-03-29T08:58:01.734Z,1121.00
2023-03-29T09:02:01.798Z,1274.00
2023-03-29T09:06:01.880Z,1470.00
2023-03-29T09:10:02.198Z,1554.00
2023-03-29T09:14:02.167Z,1662.00
2023-03-29T09:18:02.358Z,1734.00
2023-03-29T09:22:02.359Z,1774.00
2023-03-29T09:26:02.497Z,1830.00
2023-03-29T09:30:02.773Z,1890.00
2023-03-29T09:34:03.094Z,2000.00
2023-03-29T09:38:02.782Z,2070.00
2023-03-29T09:42:02.891Z,2115.00
2023-03-29T09:46:03.179Z,2083.00
2023-03-29T09:50:03.134Z,1413.00
2023-03-29T09:54:03.626Z,574.00
2023-03-29T09:58:03.506Z,503.00
2023-03-29T10:02:03.446Z,589.00
2023-03-29T10:06:03.574Z,733.00
2023-03-29T10:10:03.761Z,911.00
2023-03-29T10:14:04.041Z,1149.00
2023-03-29T10:18:03.933Z,1270.00
2023-03-29T10:22:04.163Z,1362.00
2023-03-29T10:26:04.335Z,1399.00
2023-03-29T10:30:04.738Z,1470.00
2023-03-29T10:34:04.764Z,1498.00
2023-03-29T10:38:05.076Z,1535.00
2023-03-29T10:42:05.037Z,1591.00
2023-03-29T10:46:05.788Z,1601.00
2023-03-29T10:50:05.248Z,1600.00
2023-03-29T10:54:05.556Z,1592.00
2023-03-29T10:58:05.665Z,1593.00
2023-03-29T11:02:05.842Z,1585.00
2023-03-29T11:06:06.105Z,1573.00
2023-03-29T11:10:06.322Z,1561.00
2023-03-29T11:14:06.396Z,1560.00
2023-03-29T11:18:06.813Z,1565.00
2023-03-29T11:22:06.940Z,1569.00
2023-03-29T11:26:07.046Z,1566.00
2023-03-29T11:30:06.989Z,1557.00
2023-03-29T11:34:07.151Z,1591.00
2023-03-29T11:38:06.713Z,1573.00
2023-03-29T11:42:06.751Z,1593.00
2023-03-29T11:46:06.774Z,1589.00
2023-03-29T11:50:06.609Z,1573.00
2023-03-29T11:54:06.718Z,1574.00
2023-03-29T11:58:06.588Z,1566.00
2023-03-29T12:02:06.629Z,1541.00
2023-03-29T12:06:06.828Z,1548.00
2023-03-29T12:10:07.103Z,1529.00
2023-03-29T12:14:07.212Z,1543.00
2023-03-29T12:18:07.562Z,1536.00
2023-03-29T12:22:07.677Z,1517.00
2023-03-29T12:26:07.791Z,1522.00
2023-03-29T12:30:08.151Z,1496.00
2023-03-29T12:34:08.334Z,1510.00
2023-03-29T12:38:08.403Z,1497.00
2023-03-29T12:42:08.784Z,1482.00
2023-03-29T12:46:08.788Z,1486.00
2023-03-29T12:50:08.886Z,1475.00
2023-03-29T12:54:09.171Z,1470.00
2023-03-29T12:58:09.316Z,1464.00
2023-03-29T13:02:09.466Z,1455.00
2023-03-29T13:06:09.692Z,1466.00
2023-03-29T13:10:09.872Z,1426.00
2023-03-29T13:14:09.995Z,1424.00
2023-03-29T13:18:11.781Z,1422.00
2023-03-29T13:22:10.155Z,1415.00
2023-03-29T13:26:10.351Z,1405.00
2023-03-29T13:30:10.364Z,1409.00
2023-03-29T13:34:10.326Z,1392.00
2023-03-29T13:38:10.214Z,1378.00
2023-03-29T13:42:10.235Z,1362.00
2023-03-29T13:46:10.248Z,1335.00
2023-03-29T13:50:10.078Z,1319.00
2023-03-29T13:54:10.129Z,1321.00
2023-03-29T13:58:10.094Z,1289.00
2023-03-29T14:02:10.047Z,1310.00
2023-03-29T14:06:10.077Z,1296.00
2023-03-29T14:10:09.955Z,1295.00
2023-03-29T14:14:09.875Z,1289.00
2023-03-29T14:18:09.982Z,1291.00
2023-03-29T14:22:09.849Z,1292.00
2023-03-29T14:26:09.786Z,1261.00
2023-03-29T14:30:09.884Z,1252.00
2023-03-29T14:34:10.102Z,1243.00
2023-03-29T14:38:10.225Z,1238.00
2023-03-29T14:42:10.302Z,1230.00
2023-03-29T14:46:10.625Z,1180.00
2023-03-29T14:50:10.680Z,1201.00
2023-03-29T14:54:10.684Z,1186.00
2023-03-29T14:58:11.270Z,1199.00
2023-03-29T15:02:10.809Z,1187.00
2023-03-29T15:06:10.782Z,1172.00
2023-03-29T15:10:10.868Z,1118.00
2023-03-29T15:14:10.914Z,1104.00
2023-03-29T15:18:10.821Z,1077.00
2023-03-29T15:22:10.808Z,1101.00
2023-03-29T15:26:10.860Z,1129.00
2023-03-29T15:30:10.886Z,1142.00
2023-03-29T15:34:11.137Z,1121.00
2023-03-29T15:38:10.908Z,1101.00
2023-03-29T15:42:11.051Z,1107.00
2023-03-29T15:46:11.114Z,1112.00
2023-03-29T15:50:11.173Z,1113.00
2023-03-29T15:54:11.419Z,1137.00
2023-03-29T15:58:11.600Z,1122.00
2023-03-29T16:02:11.442Z,1120.00
2023-03-29T16:06:11.625Z,1109.00
2023-03-29T16:10:11.703Z,1113.00
2023-03-29T16:14:11.724Z,1132.00
2023-03-29T16:18:11.822Z,1127.00
2023-03-29T16:22:11.861Z,1111.00
2023-03-29T16:26:11.840Z,1117.00
2023-03-29T16:30:11.979Z,1100.00
2023-03-29T16:34:11.931Z,1067.00
2023-03-29T16:38:12.029Z,1085.00
2023-03-29T16:42:12.164Z,1070.00
2023-03-29T16:46:12.179Z,1062.00
2023-03-29T16:50:12.238Z,1051.00
2023-03-29T16:54:12.305Z,1050.00
2023-03-29T16:58:12.284Z,1045.00
2023-03-29T17:02:12.377Z,1035.00
2023-03-29T17:06:12.489Z,1032.00
2023-03-29T17:10:12.477Z,1041.00
2023-03-29T17:14:12.627Z,1027.00
2023-03-29T17:18:12.762Z,1017.00
2023-03-29T17:22:12.702Z,1023.00
2023-03-29T17:26:12.842Z,1020.00
2023-03-29T17:30:12.926Z,1018.00
2023-03-29T17:34:12.962Z,1015.00
2023-03-29T17:38:13.130Z,1014.00
2023-03-29T17:42:13.306Z,1010.00
2023-03-29T17:46:13.277Z,1007.00
2023-03-29T17:50:13.458Z,995.00
2023-03-29T17:54:13.587Z,998.00
2023-03-29T17:58:13.596Z,993.00
2023-03-29T18:02:13.846Z,997.00
2023-03-29T18:06:13.984Z,996.00
2023-03-29T18:10:14.009Z,985.00
2023-03-29T18:14:14.278Z,974.00
2023-03-29T18:18:14.402Z,975.00
2023-03-29T18:22:14.398Z,979.00
2023-03-29T18:26:14.599Z,971.00
2023-03-29T18:30:14.761Z,964.00
2023-03-29T18:34:14.823Z,958.00
2023-03-29T18:38:15.050Z,965.00
2023-03-29T18:42:15.183Z,949.00
2023-03-29T18:46:15.318Z,961.00
2023-03-29T18:50:15.503Z,933.00
2023-03-29T18:54:15.667Z,924.00
2023-03-29T18:58:15.758Z,908.00
2023-03-29T19:02:16.060Z,889.00
2023-03-29T19:06:16.133Z,854.00
2023-03-29T19:10:16.290Z,855.00
2023-03-29T19:14:16.552Z,875.00
2023-03-29T19:18:16.683Z,857.00
2023-03-29T19:22:16.774Z,862.00
2023-03-29T19:26:17.069Z,859.00
2023-03-29T19:30:17.136Z,874.00
2023-03-29T19:34:17.308Z,863.00
2023-03-29T19:38:17.536Z,854.00
2023-03-29T19:42:17.751Z,850.00
2023-03-29T19:46:17.913Z,861.00
2023-03-29T19:50:18.127Z,844.00
2023-03-29T19:54:18.289Z,845.00
2023-03-29T19:58:18.535Z,848.00
2023-03-29T20:02:18.733Z,839.00
2023-03-29T20:06:18.918Z,840.00
2023-03-29T20:10:19.100Z,837.00
2023-03-29T20:14:19.347Z,836.00
2023-03-29T20:18:19.522Z,826.00
2023-03-29T20:22:19.766Z,827.00
2023-03-29T20:26:19.982Z,826.00
2023-03-29T20:30:20.214Z,831.00
2023-03-29T20:34:20.330Z,813.00
2023-03-29T20:38:20.571Z,829.00
2023-03-29T20:42:20.776Z,808.00
2023-03-29T20:46:21.012Z,816.00
2023-03-29T20:50:21.216Z,799.00
2023-03-29T20:54:21.438Z,802.00
2023-03-29T20:58:21.383Z,818.00
2023-03-29T21:02:21.657Z,797.00
2023-03-29T21:06:21.297Z,806.00
2023-03-29T21:10:21.284Z,805.00
2023-03-29T21:14:21.304Z,795.00
2023-03-29T21:18:21.172Z,791.00
2023-03-29T21:22:21.134Z,786.00
2023-03-29T21:26:21.116Z,787.00
2023-03-29T21:30:21.131Z,788.00
2023-03-29T21:34:21.175Z,787.00
2023-03-29T21:38:21.359Z,796.00
2023-03-29T21:42:21.523Z,767.00
2023-03-29T21:46:21.547Z,791.00
2023-03-29T21:50:21.488Z,779.00
2023-03-29T21:54:21.430Z,780.00
2023-03-29T21:58:21.428Z,768.00
2023-03-29T22:02:21.422Z,757.00
2023-03-29T22:06:21.382Z,767.00
2023-03-29T22:10:21.289Z,767.00
2023-03-29T22:14:21.258Z,758.00
2023-03-29T22:18:21.230Z,772.00
2023-03-29T22:22:21.227Z,752.00
2023-03-29T22:26:21.249Z,742.00
2023-03-29T22:30:21.516Z,746.00
2023-03-29T22:34:21.741Z,744.00
2023-03-29T22:38:21.887Z,747.00
2023-03-29T22:42:22.022Z,746.00
2023-03-29T22:46:22.242Z,732.00
2023-03-29T22:50:22.376Z,732.00
2023-03-29T22:54:22.482Z,730.00
2023-03-29T22:58:22.573Z,717.00
2023-03-29T23:02:22.698Z,715.00
2023-03-29T23:06:22.870Z,711.00
2023-03-29T23:10:22.991Z,724.00
2023-03-29T23:14:23.062Z,718.00
2023-03-29T23:18:23.212Z,713.00
2023-03-29T23:22:23.274Z,679.00
2023-03-29T23:26:23.343Z,687.00
2023-03-29T23:30:23.467Z,683.00
2023-03-29T23:34:23.542Z,665.00
2023-03-29T23:38:23.634Z,667.00
2023-03-29T23:42:23.758Z,681.00
2023-03-29T23:46:23.981Z,666.00
2023-03-29T23:50:24.010Z,666.00
2023-03-29T23:54:24.078Z,667.00
2023-03-29T23:58:24.220Z,662.00
